| time (UTC) | temp C | wind direction | speed KPH | gust KPH | rain 1hr cm | rain 24hr cm | rain mn cm | humidity % | barometer mb |
| 20260906094557 | 21 | 0 | 0.0 | 1.6 | 0.00 | 0.43 | 0.00 | 92 | 1013.9 |
| 20260906093103 | 21 | 0 | 0.0 | 1.6 | 0.00 | 0.43 | 0.00 | 92 | 1013.9 |
| 20260906091555 | 21 | 0 | 0.0 | 3.2 | 0.00 | 0.43 | 0.00 | 92 | 1013.9 |
| 20260906090115 | 21 | 0 | 0.0 | 1.6 | 0.00 | 0.43 | 0.00 | 92 | 1013.9 |
| 20260906084609 | 21 | 0 | 0.0 | 3.2 | 0.00 | 0.43 | 0.00 | 92 | 1014.0 |
| 20260906083055 | 21 | 0 | 0.0 | 4.8 | 0.00 | 0.43 | 0.00 | 92 | 1014.0 |
| 20260906081558 | 22 | 115 | 0.0 | 4.8 | 0.00 | 0.43 | 0.00 | 91 | 1013.8 |
| 20260906080104 | 22 | 163 | 0.0 | 3.2 | 0.00 | 0.43 | 0.00 | 91 | 1013.7 |
| 20260906074607 | 22 | 0 | 0.0 | 3.2 | 0.00 | 0.43 | 0.00 | 91 | 1013.4 |
| 20260906073106 | 22 | 0 | 0.0 | 3.2 | 0.00 | 0.43 | 0.00 | 91 | 1013.5 |
| 20260906071555 | 22 | 0 | 0.0 | 1.6 | 0.00 | 0.43 | 0.00 | 91 | 1013.7 |
| 20260906070113 | 22 | 0 | 0.0 | 3.2 | 0.00 | 0.43 | 0.00 | 91 | 1013.7 |
| 20260906064559 | 22 | 0 | 0.0 | 3.2 | 0.00 | 0.43 | 0.00 | 92 | 1013.7 |
| 20260906063056 | 22 | 0 | 0.0 | 0.0 | 0.00 | 0.43 | 0.00 | 92 | 1013.9 |
| 20260906061635 | 22 | 0 | 0.0 | 1.6 | 0.00 | 0.43 | 0.00 | 92 | 1014.2 |
| 20260906060104 | 22 | 0 | 0.0 | 1.6 | 0.00 | 0.43 | 0.00 | 92 | 1014.5 |
| 20260906054559 | 22 | 0 | 0.0 | 0.0 | 0.00 | 0.43 | 0.00 | 92 | 1014.7 |
| 20260906053058 | 22 | 0 | 0.0 | 3.2 | 0.00 | 0.43 | 0.00 | 92 | 1014.7 |
| 20260906051554 | 22 | 0 | 0.0 | 4.8 | 0.00 | 0.43 | 0.00 | 92 | 1014.9 |
| 20260906050109 | 22 | 0 | 0.0 | 4.8 | 0.00 | 0.43 | 0.00 | 91 | 1014.9 |
| 20260906044558 | 22 | 0 | 0.0 | 1.6 | 0.00 | 0.43 | 0.00 | 91 | 1014.9 |
| 20260906043108 | 22 | 135 | 0.0 | 3.2 | 0.00 | 0.43 | 0.00 | 90 | 1015.1 |
| 20260906041605 | 22 | 135 | 0.0 | 1.6 | 0.00 | 0.43 | 0.00 | 89 | 1014.9 |
| 20260906040116 | 22 | 0 | 0.0 | 1.6 | 0.00 | 0.43 | 0.00 | 89 | 1015.0 |
| 20260906034558 | 22 | 117 | 0.0 | 4.8 | 0.00 | 0.43 | 0.43 | 89 | 1015.2 |
| 20260906033058 | 22 | 0 | 1.6 | 4.8 | 0.00 | 0.43 | 0.43 | 89 | 1015.2 |
| 20260906031610 | 22 | 0 | 0.0 | 4.8 | 0.00 | 0.43 | 0.43 | 88 | 1015.2 |
| 20260906030108 | 23 | 271 | 0.0 | 4.8 | 0.00 | 0.43 | 0.43 | 87 | 1015.2 |
| 20260906024556 | 23 | 0 | 1.6 | 4.8 | 0.00 | 0.43 | 0.43 | 87 | 1015.3 |
| 20260906023115 | 23 | 153 | 0.0 | 4.8 | 0.00 | 0.43 | 0.43 | 88 | 1015.3 |
| 20260906021556 | 23 | 0 | 0.0 | 4.8 | 0.00 | 0.43 | 0.43 | 88 | 1015.0 |
| 20260906020056 | 23 | 0 | 0.0 | 0.0 | 0.00 | 0.43 | 0.43 | 87 | 1015.2 |
| 20260906014626 | 24 | 0 | 1.6 | 8.0 | 0.00 | 0.43 | 0.43 | 86 | 1015.1 |
| 20260906013100 | 24 | 88 | 6.4 | 12.9 | 0.00 | 0.43 | 0.43 | 85 | 1015.2 |
| 20260906011600 | 24 | 0 | 1.6 | 11.3 | 0.00 | 0.43 | 0.43 | 88 | 1015.0 |
| 20260906010058 | 24 | 0 | 0.0 | 4.8 | 0.00 | 0.43 | 0.43 | 91 | 1014.5 |
| 20260906004614 | 24 | 213 | 0.0 | 3.2 | 0.00 | 0.43 | 0.43 | 90 | 1014.2 |
| 20260906003104 | 25 | 0 | 0.0 | 6.4 | 0.00 | 0.43 | 0.43 | 89 | 1013.8 |
| 20260906001559 | 25 | 162 | 0.0 | 3.2 | 0.00 | 0.43 | 0.43 | 87 | 1013.5 |
| 20260906000107 | 25 | 162 | 0.0 | 1.6 | 0.00 | 0.43 | 0.43 | 87 | 1013.4 |
| 20260905234604 | 26 | 0 | 0.0 | 4.8 | 0.00 | 0.43 | 0.43 | 84 | 1013.6 |
| 20260905233100 | 26 | 0 | 1.6 | 4.8 | 0.00 | 0.43 | 0.43 | 84 | 1013.9 |
| 20260905231557 | 26 | 88 | 1.6 | 4.8 | 0.00 | 0.43 | 0.43 | 80 | 1013.8 |
| 20260905230110 | 26 | 0 | 0.0 | 6.4 | 0.00 | 0.43 | 0.43 | 80 | 1013.9 |
| 20260905224607 | 26 | 118 | 1.6 | 11.3 | 0.00 | 0.43 | 0.43 | 79 | 1013.9 |
| 20260905223107 | 27 | 121 | 4.8 | 11.3 | 0.00 | 0.43 | 0.43 | 80 | 1013.8 |
| 20260905221627 | 26 | 0 | 0.0 | 4.8 | 0.00 | 0.43 | 0.43 | 80 | 1013.8 |
| 20260905220127 | 26 | 232 | 0.0 | 4.8 | 0.00 | 0.43 | 0.43 | 77 | 1013.9 |
| 20260905214611 | 26 | 189 | 0.0 | 4.8 | 0.00 | 0.43 | 0.43 | 76 | 1013.7 |
| 20260905213115 | 27 | 324 | 0.0 | 9.7 | 0.00 | 0.43 | 0.43 | 76 | 1013.5 |
| 20260905211623 | 26 | 200 | 3.2 | 9.7 | 0.00 | 0.43 | 0.43 | 77 | 1013.8 |
| 20260905210125 | 26 | 327 | 1.6 | 6.4 | 0.00 | 0.43 | 0.43 | 77 | 1014.0 |
| 20260905204624 | 25 | 34 | 1.6 | 4.8 | 0.05 | 0.43 | 0.43 | 80 | 1014.0 |
| 20260905203105 | 24 | 319 | 3.2 | 9.7 | 0.43 | 0.43 | 0.43 | 85 | 1015.2 |
| 20260905201604 | 24 | 317 | 3.2 | 6.4 | 0.43 | 0.43 | 0.43 | 85 | 1015.0 |
| 20260905200109 | 24 | 130 | 3.2 | 14.5 | 0.43 | 0.43 | 0.43 | 76 | 1015.3 |
| 20260905194607 | 27 | 216 | 9.7 | 38.6 | 0.38 | 0.38 | 0.38 | 78 | 1015.2 |
| 20260905193104 | 33 | 190 | 11.3 | 37.0 | 0.00 | 0.00 | 0.00 | 51 | 1014.5 |
| 20260905191604 | 33 | 0 | 4.8 | 8.0 | 0.00 | 0.00 | 0.00 | 51 | 1014.0 |
| 20260905190108 | 33 | 51 | 1.6 | 12.9 | 0.00 | 0.00 | 0.00 | 53 | 1014.0 |
| 20260905184609 | 34 | 210 | 1.6 | 11.3 | 0.00 | 0.00 | 0.00 | 52 | 1014.4 |
| 20260905183126 | 34 | 57 | 3.2 | 11.3 | 0.00 | 0.00 | 0.00 | 52 | 1014.4 |
| 20260905181605 | 33 | 295 | 3.2 | 11.3 | 0.00 | 0.00 | 0.00 | 49 | 1014.4 |
| 20260905180100 | 33 | 306 | 3.2 | 11.3 | 0.00 | 0.00 | 0.00 | 51 | 1014.6 |
| 20260905174606 | 33 | 159 | 3.2 | 11.3 | 0.00 | 0.00 | 0.00 | 52 | 1014.8 |
| 20260905173104 | 33 | 196 | 3.2 | 11.3 | 0.00 | 0.00 | 0.00 | 54 | 1015.0 |
| 20260905171605 | 33 | 223 | 1.6 | 6.4 | 0.00 | 0.00 | 0.00 | 58 | 1014.9 |
| 20260905170101 | 32 | 0 | 3.2 | 12.9 | 0.00 | 0.00 | 0.00 | 57 | 1015.3 |
| 20260905164608 | 32 | 360 | 4.8 | 11.3 | 0.00 | 0.00 | 0.00 | 57 | 1015.5 |
| 20260905163105 | 32 | 298 | 4.8 | 12.9 | 0.00 | 0.00 | 0.00 | 60 | 1015.8 |
| 20260905161554 | 32 | 352 | 1.6 | 12.9 | 0.00 | 0.00 | 0.00 | 61 | 1016.0 |
| 20260905160119 | 31 | 294 | 3.2 | 9.7 | 0.00 | 0.00 | 0.00 | 62 | 1016.1 |
| 20260905154557 | 31 | 236 | 1.6 | 6.4 | 0.00 | 0.00 | 0.00 | 65 | 1016.2 |
| 20260905153112 | 31 | 207 | 3.2 | 8.0 | 0.00 | 0.00 | 0.00 | 65 | 1016.2 |
| 20260905151609 | 31 | 297 | 3.2 | 8.0 | 0.00 | 0.00 | 0.00 | 65 | 1016.3 |
| 20260905150104 | 30 | 217 | 3.2 | 6.4 | 0.00 | 0.00 | 0.00 | 69 | 1016.4 |
| 20260905144555 | 29 | 234 | 3.2 | 8.0 | 0.00 | 0.00 | 0.00 | 70 | 1016.4 |
| 20260905143055 | 28 | 270 | 1.6 | 9.7 | 0.00 | 0.00 | 0.00 | 71 | 1016.5 |
| 20260905141602 | 28 | 190 | 3.2 | 9.7 | 0.00 | 0.00 | 0.00 | 72 | 1016.5 |
| 20260905140107 | 27 | 0 | 3.2 | 8.0 | 0.00 | 0.00 | 0.00 | 74 | 1016.7 |
| 20260905134556 | 27 | 207 | 3.2 | 6.4 | 0.00 | 0.00 | 0.00 | 77 | 1016.9 |
| 20260905133106 | 26 | 206 | 3.2 | 6.4 | 0.00 | 0.00 | 0.00 | 78 | 1017.0 |
| 20260905131610 | 26 | 189 | 0.0 | 4.8 | 0.00 | 0.00 | 0.00 | 80 | 1016.8 |
| 20260905130123 | 25 | 215 | 1.6 | 4.8 | 0.00 | 0.00 | 0.00 | 82 | 1016.8 |
| 20260905124557 | 24 | 0 | 0.0 | 4.8 | 0.00 | 0.00 | 0.00 | 84 | 1016.7 |
| 20260905123107 | 23 | 211 | 1.6 | 3.2 | 0.00 | 0.00 | 0.00 | 86 | 1016.8 |
| 20260905121604 | 22 | 0 | 0.0 | 4.8 | 0.00 | 0.00 | 0.00 | 90 | 1016.6 |
| 20260905120113 | 22 | 0 | 0.0 | 3.2 | 0.00 | 0.00 | 0.00 | 91 | 1016.5 |
| 20260905114605 | 22 | 0 | 0.0 | 1.6 | 0.00 | 0.00 | 0.00 | 92 | 1016.5 |
| 20260905113105 | 21 | 233 | 0.0 | 1.6 | 0.00 | 0.00 | 0.00 | 93 | 1016.2 |
| 20260905111613 | 21 | 0 | 0.0 | 1.6 | 0.00 | 0.00 | 0.00 | 93 | 1016.0 |
| 20260905104601 | 21 | 0 | 0.0 | 3.2 | 0.00 | 0.00 | 0.00 | 93 | 1015.8 |
| 20260905103102 | 21 | 0 | 0.0 | 1.6 | 0.00 | 0.00 | 0.00 | 94 | 1015.8 |
| 20260905101602 | 21 | 0 | 0.0 | 0.0 | 0.00 | 0.00 | 0.00 | 94 | 1015.8 |
| 20260905100109 | 22 | 0 | 0.0 | 1.6 | 0.00 | 0.00 | 0.00 | 93 | 1015.7 |